Time;durP1;ratioP1;P1;durP2;ratioP2;P2;SDS_P1;SDS_P2;PMS_P1;PMS_P2;Temp;Humidity;BMP_temperature;BMP_pressure;BME280_temperature;BME280_humidity;BME280_pressure;Samples;Min_cycle;Max_cycle;Signal;HPM_P1;HPM_P2
2022/06/28 00:00:36;;;;;;;14.38;9.02;;;14.70;99.90;;;;;;5053199;28;20054;-79
2022/06/28 00:03:03;;;;;;;12.82;8.30;;;14.60;99.90;;;;;;5053105;28;20068;-79
2022/06/28 00:05:28;;;;;;;16.55;9.20;;;14.60;99.90;;;;;;5064650;28;20037;-78
2022/06/28 00:07:54;;;;;;;13.50;8.35;;;14.60;99.90;;;;;;5032682;28;20517;-79
2022/06/28 00:10:20;;;;;;;14.38;8.85;;;14.60;99.90;;;;;;5033347;28;20036;-79
2022/06/28 00:12:45;;;;;;;15.57;8.80;;;14.60;99.90;;;;;;5032665;28;20434;-79
2022/06/28 00:17:58;;;;;;;13.23;9.00;;;14.50;99.90;;;;;;5049332;28;20040;-78
2022/06/28 00:20:24;;;;;;;15.90;9.68;;;14.50;99.90;;;;;;5066113;28;20049;-79
2022/06/28 00:22:50;;;;;;;13.95;8.75;;;14.50;99.90;;;;;;5036037;28;20029;-79
2022/06/28 00:25:16;;;;;;;12.93;8.95;;;14.50;99.90;;;;;;5036039;28;20044;-78
2022/06/28 00:27:41;;;;;;;15.40;10.30;;;14.50;99.90;;;;;;5068560;28;20526;-80
2022/06/28 00:30:08;;;;;;;15.13;8.77;;;14.50;99.90;;;;;;5050013;28;20052;-79
2022/06/28 00:32:34;;;;;;;14.52;9.80;;;14.50;99.90;;;;;;5051971;28;20106;-80
2022/06/28 00:35:00;;;;;;;13.40;9.18;;;14.50;99.90;;;;;;5068502;28;20044;-79
2022/06/28 00:37:27;;;;;;;13.75;9.10;;;14.50;99.90;;;;;;5048898;28;20048;-79
2022/06/28 00:39:53;;;;;;;12.63;9.13;;;14.50;99.90;;;;;;5053499;28;20040;-79
2022/06/28 00:42:19;;;;;;;15.88;9.70;;;14.50;99.90;;;;;;5038635;28;20041;-79
2022/06/28 00:44:45;;;;;;;15.00;9.05;;;14.50;99.90;;;;;;5052210;28;20051;-79
2022/06/28 00:47:11;;;;;;;14.73;9.15;;;14.40;99.90;;;;;;5050563;28;20048;-79
2022/06/28 00:49:41;;;;;;;13.63;9.07;;;14.40;99.90;;;;;;5016243;28;20032;-79
2022/06/28 00:52:09;;;;;;;14.70;9.20;;;14.40;99.90;;;;;;5034079;28;20131;-80
2022/06/28 00:54:35;;;;;;;14.55;8.48;;;14.30;99.90;;;;;;5052108;28;20044;-79
2022/06/28 00:57:01;;;;;;;13.35;8.45;;;14.30;99.90;;;;;;5050076;28;20118;-79
2022/06/28 00:59:26;;;;;;;13.90;8.48;;;14.30;99.90;;;;;;5031824;28;20041;-79
2022/06/28 01:01:52;;;;;;;12.98;8.68;;;14.20;99.90;;;;;;5048128;28;20048;-79
2022/06/28 01:04:18;;;;;;;13.27;8.68;;;14.20;99.90;;;;;;5048483;28;20112;-79
2022/06/28 01:06:44;;;;;;;15.20;8.50;;;14.20;99.90;;;;;;5048391;28;20029;-79
2022/06/28 01:09:10;;;;;;;14.57;8.68;;;14.20;99.90;;;;;;5048409;28;20506;-79
2022/06/28 01:11:36;;;;;;;12.60;7.95;;;14.20;99.90;;;;;;5014629;28;20142;-79
2022/06/28 01:14:07;;;;;;;15.52;8.57;;;14.20;99.90;;;;;;5015547;28;20049;-79
2022/06/28 01:16:34;;;;;;;14.80;7.90;;;14.20;99.90;;;;;;5047793;28;20145;-79
2022/06/28 01:19:00;;;;;;;16.08;8.43;;;14.10;99.90;;;;;;5037510;28;20068;-80
2022/06/28 01:21:28;;;;;;;14.20;7.95;;;14.10;99.90;;;;;;5030972;28;20472;-80
2022/06/28 01:23:54;;;;;;;12.50;7.78;;;14.10;99.90;;;;;;5048248;28;20389;-80
2022/06/28 01:26:21;;;;;;;13.95;7.88;;;14.00;99.90;;;;;;5036124;28;20379;-80
2022/06/28 01:28:48;;;;;;;14.05;8.27;;;14.00;99.90;;;;;;5047989;28;20041;-80
2022/06/28 01:31:16;;;;;;;12.00;7.65;;;14.00;99.90;;;;;;5047431;28;20138;-79
2022/06/28 01:33:42;;;;;;;12.73;7.55;;;14.00;99.90;;;;;;5031753;28;20461;-79
2022/06/28 01:36:09;;;;;;;12.10;7.35;;;13.90;99.90;;;;;;5047400;28;20129;-80
2022/06/28 01:38:38;;;;;;;16.90;8.48;;;13.90;99.90;;;;;;5047549;28;20044;-80
2022/06/28 01:41:04;;;;;;;12.60;7.40;;;13.90;99.90;;;;;;5047648;28;20080;-79
2022/06/28 01:43:34;;;;;;;15.18;7.30;;;13.90;99.90;;;;;;5031124;28;20043;-79
2022/06/28 01:46:02;;;;;;;12.35;7.53;;;13.90;99.90;;;;;;5030785;28;20044;-79
2022/06/28 01:48:28;;;;;;;13.05;6.97;;;13.90;99.90;;;;;;5031884;28;20524;-80
2022/06/28 01:50:54;;;;;;;11.63;6.80;;;13.90;99.90;;;;;;5047183;28;20127;-79
2022/06/28 01:53:21;;;;;;;11.43;6.78;;;13.90;99.90;;;;;;5031099;28;20091;-79
2022/06/28 01:55:47;;;;;;;14.40;7.13;;;13.80;99.90;;;;;;5050037;28;20096;-79
2022/06/28 01:58:13;;;;;;;13.73;7.25;;;13.80;99.90;;;;;;5050748;28;20041;-80
2022/06/28 02:00:39;;;;;;;14.65;7.57;;;13.80;99.90;;;;;;5034045;28;20491;-79
2022/06/28 02:03:05;;;;;;;13.80;7.25;;;13.80;99.90;;;;;;5050805;28;20036;-80
2022/06/28 02:05:33;;;;;;;13.07;7.32;;;13.80;99.90;;;;;;5061938;28;20720;-80
2022/06/28 02:07:59;;;;;;;12.40;7.25;;;13.80;99.90;;;;;;5047400;28;20041;-79
2022/06/28 02:10:25;;;;;;;12.48;6.75;;;13.70;99.90;;;;;;5030969;28;20056;-80
2022/06/28 02:12:50;;;;;;;11.90;6.85;;;13.70;99.90;;;;;;5013902;28;20044;-80
2022/06/28 02:15:16;;;;;;;12.88;7.70;;;13.70;99.90;;;;;;5030474;28;20044;-79
2022/06/28 02:17:43;;;;;;;13.40;7.32;;;13.70;99.90;;;;;;5032833;28;20125;-80
2022/06/28 02:20:10;;;;;;;14.23;7.97;;;13.70;99.90;;;;;;5034292;28;20427;-80
2022/06/28 02:22:36;;;;;;;10.82;6.63;;;13.70;99.90;;;;;;5050067;28;20340;-79
2022/06/28 02:25:03;;;;;;;13.30;7.13;;;13.70;99.90;;;;;;5050708;28;20055;-80
2022/06/28 02:27:28;;;;;;;12.10;6.88;;;13.70;99.90;;;;;;5033557;28;20382;-79
2022/06/28 02:29:54;;;;;;;12.82;7.93;;;13.70;99.90;;;;;;5067082;28;20041;-79
2022/06/28 02:32:20;;;;;;;14.57;7.28;;;13.70;99.90;;;;;;5066526;28;20040;-80
2022/06/28 02:40:27;;;;;;;14.85;8.02;;;13.70;99.90;;;;;;5067174;28;20490;-80
2022/06/28 02:43:00;;;;;;;13.48;7.80;;;13.60;99.90;;;;;;5052145;28;20040;-79
2022/06/28 02:45:28;;;;;;;13.68;6.85;;;13.60;99.90;;;;;;5034681;28;20037;-80
2022/06/28 02:47:54;;;;;;;11.85;7.22;;;13.60;99.90;;;;;;5059597;28;20425;-79
2022/06/28 02:50:21;;;;;;;11.52;6.57;;;13.60;99.90;;;;;;5033243;28;20048;-80
2022/06/28 02:52:46;;;;;;;12.30;7.38;;;13.60;99.90;;;;;;5034210;28;20037;-80
2022/06/28 02:55:12;;;;;;;12.98;7.75;;;13.50;99.90;;;;;;5065624;28;20047;-80
2022/06/28 02:57:39;;;;;;;13.75;7.63;;;13.50;99.90;;;;;;5020791;28;20048;-80
2022/06/28 03:00:08;;;;;;;13.93;7.63;;;13.50;99.90;;;;;;5037711;28;20044;-81
2022/06/28 03:02:35;;;;;;;12.32;7.35;;;13.50;99.90;;;;;;5070780;28;20115;-80
2022/06/28 03:05:04;;;;;;;13.60;7.65;;;13.40;99.90;;;;;;5054806;28;20036;-80
2022/06/28 03:07:29;;;;;;;12.85;7.50;;;13.40;99.90;;;;;;5053770;28;20129;-80
2022/06/28 03:09:55;;;;;;;14.32;7.50;;;13.40;99.90;;;;;;5053927;28;20517;-80
2022/06/28 03:12:21;;;;;;;13.00;7.45;;;13.40;99.90;;;;;;5037141;28;20079;-81
2022/06/28 03:14:46;;;;;;;12.95;8.00;;;13.40;99.90;;;;;;5037171;28;20430;-80
2022/06/28 03:17:12;;;;;;;13.90;8.00;;;13.40;99.90;;;;;;5053407;28;20072;-80
2022/06/28 03:19:38;;;;;;;12.93;7.63;;;13.40;99.90;;;;;;5044778;28;20037;-80
2022/06/28 03:22:03;;;;;;;14.20;7.60;;;13.40;99.90;;;;;;5033391;28;20071;-80
2022/06/28 03:24:29;;;;;;;14.23;8.43;;;13.40;99.90;;;;;;5033916;28;20037;-80
2022/06/28 03:26:55;;;;;;;13.52;7.82;;;13.40;99.90;;;;;;5060671;28;20033;-80
2022/06/28 03:29:21;;;;;;;14.50;8.00;;;13.40;99.90;;;;;;5001264;28;20043;-80
2022/06/28 03:31:46;;;;;;;14.02;7.70;;;13.40;99.90;;;;;;5033744;28;20068;-80
2022/06/28 03:34:12;;;;;;;13.20;7.90;;;13.50;99.90;;;;;;5033585;28;20075;-80
2022/06/28 03:36:38;;;;;;;14.65;8.80;;;13.80;99.90;;;;;;5033467;28;20059;-80
2022/06/28 03:39:04;;;;;;;13.40;7.35;;;13.40;99.90;;;;;;5017012;28;20068;-80
2022/06/28 03:41:29;;;;;;;11.40;7.38;;;13.50;99.90;;;;;;5033286;28;20041;-80
2022/06/28 03:43:55;;;;;;;14.98;7.97;;;13.50;99.90;;;;;;5034110;28;20103;-80
2022/06/28 03:46:21;;;;;;;12.55;7.85;;;13.50;99.90;;;;;;5033294;28;20577;-80
2022/06/28 03:48:47;;;;;;;13.05;7.50;;;13.50;99.90;;;;;;5033709;28;20474;-80
2022/06/28 03:51:14;;;;;;;15.25;7.35;;;13.50;99.90;;;;;;5033305;28;20045;-80
2022/06/28 03:53:40;;;;;;;11.60;6.60;;;13.50;99.90;;;;;;5035388;28;20040;-80
2022/06/28 03:56:06;;;;;;;12.50;7.68;;;13.50;99.90;;;;;;5026831;28;20037;-80
2022/06/28 03:58:32;;;;;;;13.00;7.03;;;13.50;99.90;;;;;;5045927;28;20041;-80
2022/06/28 04:00:58;;;;;;;14.45;7.60;;;13.60;99.90;;;;;;5000045;28;20155;-80
2022/06/28 04:03:23;;;;;;;11.75;7.22;;;13.60;99.90;;;;;;5033212;28;20124;-80
2022/06/28 04:05:50;;;;;;;12.30;7.00;;;13.70;99.90;;;;;;5023697;28;20086;-80
2022/06/28 04:08:16;;;;;;;13.20;7.13;;;13.70;99.90;;;;;;5055366;28;20064;-80
2022/06/28 04:10:42;;;;;;;14.15;7.63;;;13.70;99.90;;;;;;5049285;28;20495;-80
2022/06/28 04:13:08;;;;;;;13.48;6.80;;;13.70;99.90;;;;;;5016517;28;20040;-80
2022/06/28 04:15:35;;;;;;;12.38;6.88;;;13.80;99.90;;;;;;5022910;28;20074;-80
2022/06/28 04:18:02;;;;;;;14.10;7.70;;;13.80;99.90;;;;;;5069288;28;20155;-80
2022/06/28 04:20:28;;;;;;;11.85;6.68;;;13.80;99.90;;;;;;5033186;28;20052;-80
2022/06/28 04:22:54;;;;;;;12.98;6.82;;;13.80;99.90;;;;;;5033535;28;20041;-80
2022/06/28 04:25:20;;;;;;;12.77;6.50;;;13.70;99.90;;;;;;5049490;28;20116;-80
2022/06/28 04:27:45;;;;;;;12.55;6.63;;;13.70;99.90;;;;;;5016092;28;20442;-80
2022/06/28 04:30:12;;;;;;;10.75;6.40;;;13.60;99.90;;;;;;5016199;28;20114;-80
2022/06/28 04:32:37;;;;;;;13.13;7.25;;;13.80;99.90;;;;;;5048847;28;20079;-80
2022/06/28 04:35:04;;;;;;;12.52;6.35;;;13.60;99.90;;;;;;5032752;28;20128;-80
2022/06/28 04:37:29;;;;;;;11.38;6.45;;;13.60;99.90;;;;;;5000004;28;20111;-80
2022/06/28 04:39:55;;;;;;;12.80;6.68;;;13.60;99.90;;;;;;5032374;28;20616;-80
2022/06/28 04:42:21;;;;;;;13.30;6.90;;;13.50;99.90;;;;;;5015538;28;20045;-80
2022/06/28 04:44:46;;;;;;;13.82;6.82;;;13.50;99.90;;;;;;5032252;28;20041;-80
2022/06/28 04:47:12;;;;;;;14.10;7.00;;;13.60;99.90;;;;;;5048223;28;20059;-80
2022/06/28 04:49:38;;;;;;;15.05;7.35;;;13.70;99.90;;;;;;5047070;28;20041;-79
2022/06/28 04:52:05;;;;;;;12.70;6.90;;;13.80;99.90;;;;;;5051852;28;20041;-80
2022/06/28 04:54:31;;;;;;;12.38;7.20;;;13.90;99.90;;;;;;5051662;28;20579;-80
2022/06/28 04:56:57;;;;;;;11.15;6.22;;;14.00;99.90;;;;;;5031730;28;20044;-80
2022/06/28 04:59:23;;;;;;;16.15;6.68;;;14.10;99.90;;;;;;5048806;28;20045;-80
2022/06/28 05:01:48;;;;;;;12.25;6.70;;;14.10;99.90;;;;;;5032746;28;20036;-80
2022/06/28 05:04:14;;;;;;;12.88;6.88;;;14.20;99.90;;;;;;5048814;28;20462;-80
2022/06/28 05:06:40;;;;;;;13.60;6.25;;;14.30;99.90;;;;;;5015329;28;20035;-79
2022/06/28 05:09:06;;;;;;;12.32;6.03;;;14.40;99.90;;;;;;5048960;28;20359;-79
2022/06/28 05:11:32;;;;;;;12.05;6.18;;;14.40;99.90;;;;;;5047290;28;20263;-79
2022/06/28 05:14:00;;;;;;;12.18;6.07;;;14.50;99.90;;;;;;5048558;28;20102;-79
2022/06/28 05:16:27;;;;;;;14.23;6.22;;;14.60;99.90;;;;;;5034722;28;20049;-80
2022/06/28 05:18:52;;;;;;;12.30;6.53;;;14.60;99.90;;;;;;5034845;28;20143;-80
2022/06/28 05:21:18;;;;;;;12.05;6.40;;;14.70;99.90;;;;;;5017886;28;20040;-79
2022/06/28 05:23:44;;;;;;;12.82;6.13;;;14.80;99.90;;;;;;5032012;28;20037;-80
2022/06/28 05:26:10;;;;;;;13.25;6.55;;;14.80;99.90;;;;;;5034011;28;20040;-79
2022/06/28 05:28:35;;;;;;;12.43;6.35;;;14.90;99.90;;;;;;5048111;28;20041;-80
2022/06/28 05:31:01;;;;;;;9.70;6.03;;;15.00;99.90;;;;;;5032815;28;20049;-80
2022/06/28 05:33:27;;;;;;;11.18;6.03;;;15.10;99.90;;;;;;5027182;28;20045;-80
2022/06/28 05:35:53;;;;;;;11.48;6.03;;;15.20;99.90;;;;;;5014526;28;20047;-80
2022/06/28 05:38:19;;;;;;;13.48;6.40;;;15.20;99.90;;;;;;5031446;28;20040;-80
2022/06/28 05:40:44;;;;;;;13.18;6.53;;;15.30;99.90;;;;;;5014643;28;20043;-80
2022/06/28 05:43:10;;;;;;;12.13;6.82;;;15.40;99.90;;;;;;5014977;28;20048;-79
2022/06/28 05:45:36;;;;;;;13.10;6.55;;;15.50;99.90;;;;;;5014668;28;20045;-80
2022/06/28 05:48:02;;;;;;;11.90;5.88;;;15.50;99.90;;;;;;5015117;28;20051;-79
2022/06/28 05:50:27;;;;;;;11.15;5.82;;;15.60;99.90;;;;;;5031328;28;20580;-80
2022/06/28 05:52:54;;;;;;;12.63;6.18;;;15.60;99.90;;;;;;4998492;28;20071;-80
2022/06/28 05:55:20;;;;;;;14.82;6.80;;;15.70;99.90;;;;;;5047149;28;20487;-80
2022/06/28 05:57:46;;;;;;;12.95;5.88;;;15.80;99.90;;;;;;5050419;28;20471;-79
2022/06/28 06:00:13;;;;;;;14.50;5.78;;;15.90;99.90;;;;;;5067776;28;20037;-79
2022/06/28 06:02:39;;;;;;;12.65;6.15;;;15.90;99.90;;;;;;5050274;28;20045;-80
2022/06/28 06:05:06;;;;;;;12.98;5.95;;;16.00;99.90;;;;;;5016254;28;20078;-79
2022/06/28 06:07:32;;;;;;;12.93;5.97;;;16.10;99.90;;;;;;5047361;28;20056;-79
2022/06/28 06:09:58;;;;;;;10.55;5.25;;;16.30;99.90;;;;;;5014564;28;20296;-79
2022/06/28 06:12:24;;;;;;;13.30;5.32;;;16.30;99.90;;;;;;5030241;28;20116;-79
2022/06/28 06:14:50;;;;;;;11.65;5.28;;;16.20;99.90;;;;;;5014799;28;20076;-79
2022/06/28 06:17:15;;;;;;;10.02;4.93;;;16.10;99.90;;;;;;5030106;28;20472;-79
2022/06/28 06:19:41;;;;;;;10.68;5.10;;;16.00;99.90;;;;;;4998225;28;20140;-80
2022/06/28 06:22:07;;;;;;;9.90;5.25;;;15.90;99.90;;;;;;5030151;28;20255;-80
2022/06/28 06:24:33;;;;;;;12.15;5.38;;;15.90;99.90;;;;;;5013200;28;20119;-79
2022/06/28 06:26:59;;;;;;;15.55;5.65;;;15.80;99.90;;;;;;5013812;28;20081;-80
2022/06/28 06:29:25;;;;;;;10.35;5.18;;;15.90;99.90;;;;;;5030585;28;20041;-79
2022/06/28 06:31:51;;;;;;;11.13;4.97;;;16.00;99.90;;;;;;5014069;28;20128;-80
2022/06/28 06:34:17;;;;;;;13.43;5.68;;;16.10;99.90;;;;;;5030618;28;20147;-79
2022/06/28 06:36:44;;;;;;;10.93;4.95;;;16.20;99.90;;;;;;5030107;28;20044;-80
2022/06/28 06:39:10;;;;;;;12.63;5.05;;;16.40;99.90;;;;;;5030485;28;20120;-79
2022/06/28 06:41:36;;;;;;;10.90;4.43;;;16.40;99.90;;;;;;5046751;28;20116;-79
2022/06/28 06:44:02;;;;;;;12.35;5.07;;;16.60;99.90;;;;;;4998336;28;20047;-79
2022/06/28 06:46:28;;;;;;;14.40;5.03;;;16.60;99.90;;;;;;5013982;28;20454;-79
2022/06/28 06:48:54;;;;;;;10.60;4.80;;;16.70;99.90;;;;;;5043460;28;20054;-78
2022/06/28 06:51:20;;;;;;;11.80;5.03;;;16.80;99.90;;;;;;5047286;28;20041;-79
2022/06/28 06:53:46;;;;;;;11.82;4.80;;;16.80;99.90;;;;;;5033432;28;20399;-78
2022/06/28 06:56:12;;;;;;;10.13;4.22;;;16.90;99.90;;;;;;5049888;28;20040;-78
2022/06/28 06:58:38;;;;;;;12.32;4.28;;;17.00;99.90;;;;;;5017598;28;20040;-79
2022/06/28 07:01:03;;;;;;;11.82;4.15;;;17.10;99.90;;;;;;5049713;28;20400;-80
2022/06/28 07:03:29;;;;;;;10.45;4.43;;;17.20;99.90;;;;;;5017100;28;20119;-78
2022/06/28 07:05:55;;;;;;;13.02;4.07;;;17.40;99.90;;;;;;5050189;28;20036;-79
2022/06/28 07:08:21;;;;;;;11.02;3.50;;;17.40;99.90;;;;;;5067047;28;20068;-79
2022/06/28 07:10:47;;;;;;;8.77;3.20;;;17.50;99.90;;;;;;5049770;28;20486;-79
2022/06/28 07:13:13;;;;;;;10.02;3.38;;;17.60;99.90;;;;;;5050540;28;20066;-79
2022/06/28 07:15:38;;;;;;;8.15;3.03;;;17.70;99.90;;;;;;5049538;28;20053;-78
2022/06/28 07:18:04;;;;;;;8.95;3.08;;;17.80;99.90;;;;;;5022451;28;20045;-79
2022/06/28 07:20:31;;;;;;;11.57;3.20;;;17.90;99.90;;;;;;5030479;28;20076;-79
2022/06/28 07:22:56;;;;;;;9.77;3.00;;;18.00;99.90;;;;;;5030076;28;20056;-80
2022/06/28 07:25:22;;;;;;;11.77;3.28;;;18.10;99.90;;;;;;5013896;28;20041;-79
2022/06/28 07:27:48;;;;;;;9.45;3.20;;;18.10;99.90;;;;;;5055534;28;20049;-79
2022/06/28 07:30:14;;;;;;;11.27;3.80;;;18.30;99.90;;;;;;5030023;28;20040;-80
2022/06/28 07:32:40;;;;;;;9.85;3.28;;;18.40;99.90;;;;;;5030250;28;20036;-79
2022/06/28 07:35:07;;;;;;;11.07;3.15;;;18.70;99.90;;;;;;5031011;28;20087;-79
2022/06/28 07:37:33;;;;;;;11.40;3.25;;;18.60;99.90;;;;;;5050301;28;20454;-79
2022/06/28 07:39:58;;;;;;;11.43;3.40;;;18.70;99.90;;;;;;5051146;28;20033;-79
2022/06/28 07:42:24;;;;;;;9.07;3.00;;;18.90;99.90;;;;;;5050121;28;20075;-79
2022/06/28 07:44:50;;;;;;;11.30;3.17;;;18.80;99.90;;;;;;5050631;28;20040;-79
2022/06/28 07:47:16;;;;;;;10.77;3.10;;;18.80;99.90;;;;;;5033209;28;20048;-79
2022/06/28 07:52:36;;;;;;;7.30;2.35;;;18.50;99.90;;;;;;5044657;28;20045;-79
2022/06/28 07:55:05;;;;;;;11.93;2.88;;;18.60;99.90;;;;;;5035021;28;20500;-79
2022/06/28 07:57:31;;;;;;;10.25;2.92;;;18.60;99.90;;;;;;5050030;28;20051;-79
2022/06/28 07:59:57;;;;;;;8.70;2.55;;;18.70;99.90;;;;;;5033479;28;20459;-80
2022/06/28 08:02:23;;;;;;;10.07;2.40;;;18.70;99.90;;;;;;5000203;28;20033;-79
2022/06/28 08:04:49;;;;;;;10.70;2.50;;;18.80;99.90;;;;;;5017102;28;20211;-79
2022/06/28 08:07:15;;;;;;;11.90;3.05;;;19.00;99.90;;;;;;5044842;28;20059;-80
2022/06/28 08:09:41;;;;;;;10.70;2.72;;;19.10;99.90;;;;;;5033354;28;20440;-80
2022/06/28 08:12:07;;;;;;;6.97;2.05;;;19.30;99.90;;;;;;5049731;28;20040;-79
2022/06/28 08:14:33;;;;;;;7.75;2.30;;;19.40;99.90;;;;;;5017017;28;20069;-79
2022/06/28 08:16:59;;;;;;;9.43;2.28;;;19.60;99.90;;;;;;5035933;28;20494;-78
2022/06/28 08:19:25;;;;;;;9.13;2.45;;;19.70;99.90;;;;;;5036629;28;20423;-78
2022/06/28 08:21:51;;;;;;;9.80;2.17;;;19.80;99.90;;;;;;5069417;28;20036;-78
2022/06/28 08:24:17;;;;;;;8.68;2.00;;;19.90;99.90;;;;;;5052996;28;20556;-79
2022/06/28 08:26:43;;;;;;;10.23;2.30;;;19.90;99.90;;;;;;5035793;28;20039;-80
2022/06/28 08:29:13;;;;;;;8.93;2.03;;;19.90;99.90;;;;;;5052967;28;20045;-79
2022/06/28 08:31:39;;;;;;;7.78;2.03;;;19.80;99.90;;;;;;5052987;28;20668;-80
2022/06/28 08:34:05;;;;;;;7.50;1.77;;;19.70;99.90;;;;;;5052830;28;20066;-79
2022/06/28 08:36:31;;;;;;;7.50;2.10;;;19.80;99.90;;;;;;5069185;28;20131;-79
2022/06/28 08:38:57;;;;;;;7.38;1.80;;;19.80;99.90;;;;;;5069401;28;20090;-79
2022/06/28 08:41:27;;;;;;;7.65;1.98;;;20.00;99.90;;;;;;5052644;28;20048;-77
2022/06/28 08:43:54;;;;;;;8.15;2.38;;;19.90;99.90;;;;;;5069746;28;20090;-77
2022/06/28 08:46:20;;;;;;;7.75;1.60;;;19.90;99.90;;;;;;5068040;28;20041;-76
2022/06/28 08:48:52;;;;;;;8.15;2.05;;;20.00;99.90;;;;;;5029865;28;20048;-78
2022/06/28 08:51:18;;;;;;;7.43;1.60;;;20.10;99.90;;;;;;5068992;28;20120;-78
2022/06/28 08:53:47;;;;;;;9.40;2.13;;;20.20;99.90;;;;;;5035881;28;20074;-78
2022/06/28 08:56:13;;;;;;;12.05;1.98;;;20.30;99.90;;;;;;5019993;28;20041;-78
2022/06/28 08:58:44;;;;;;;9.80;1.98;;;20.40;99.90;;;;;;5015651;28;20040;-78
2022/06/28 09:01:12;;;;;;;13.25;2.17;;;20.40;99.90;;;;;;5048389;28;20033;-78
2022/06/28 09:03:38;;;;;;;8.10;1.92;;;20.40;99.90;;;;;;5015875;28;20506;-78
2022/06/28 09:06:05;;;;;;;7.60;1.80;;;20.50;99.90;;;;;;5031681;28;20052;-78
2022/06/28 09:08:31;;;;;;;6.22;1.70;;;20.60;99.90;;;;;;5049244;28;20040;-77
2022/06/28 09:10:58;;;;;;;9.30;2.17;;;20.70;99.90;;;;;;5031582;28;20055;-77
2022/06/28 09:13:25;;;;;;;5.93;1.70;;;;;;;;;;5015755;28;20056;-77
2022/06/28 09:15:54;;;;;;;6.95;1.75;;;20.90;99.90;;;;;;5044620;28;20096;-78
2022/06/28 09:18:44;;;;;;;7.63;1.55;;;21.00;99.90;;;;;;5051437;28;20525;-78
2022/06/28 09:21:13;;;;;;;9.35;1.80;;;21.20;99.90;;;;;;5035508;28;20033;-78
2022/06/28 09:23:41;;;;;;;6.65;1.67;;;21.20;99.90;;;;;;5032885;28;20071;-78
2022/06/28 09:26:09;;;;;;;5.63;1.60;;;21.30;99.90;;;;;;5050947;28;20190;-78
2022/06/28 09:28:42;;;;;;;8.13;1.83;;;21.40;99.90;;;;;;5048806;28;20041;-78
2022/06/28 09:31:17;;;;;;;6.28;1.63;;;21.40;99.90;;;;;;5047719;28;20051;-78
2022/06/28 09:33:45;;;;;;;7.35;1.50;;;21.40;99.90;;;;;;5031785;28;20044;-78
2022/06/28 09:36:13;;;;;;;7.60;1.90;;;21.60;99.90;;;;;;5047765;28;20493;-78
2022/06/28 09:38:39;;;;;;;6.07;1.63;;;21.70;99.90;;;;;;5047954;28;20045;-78
2022/06/28 09:41:17;;;;;;;9.00;1.88;;;21.80;99.90;;;;;;5031539;28;20052;-78
2022/06/28 09:43:43;;;;;;;6.63;1.40;;;21.80;99.90;;;;;;5047918;28;20041;-78
2022/06/28 09:46:09;;;;;;;8.85;1.80;;;21.90;99.90;;;;;;5014180;28;20059;-79
2022/06/28 09:48:38;;;;;;;7.75;1.85;;;22.00;99.90;;;;;;5031449;28;20045;-79
2022/06/28 09:51:04;;;;;;;8.60;1.75;;;21.70;99.90;;;;;;5030574;28;20045;-79
2022/06/28 09:53:33;;;;;;;10.60;2.00;;;21.60;99.90;;;;;;5021902;28;20295;-78
2022/06/28 09:56:03;;;;;;;10.55;2.63;;;21.80;99.90;;;;;;5034719;28;20502;-79
2022/06/28 09:58:30;;;;;;;8.32;1.75;;;22.00;99.90;;;;;;5030850;28;20041;-78
2022/06/28 10:00:56;;;;;;;6.97;1.80;;;21.90;99.90;;;;;;5031006;28;20044;-79
2022/06/28 10:03:22;;;;;;;10.30;1.98;;;21.70;99.90;;;;;;5047864;28;20436;-78
2022/06/28 10:05:48;;;;;;;4.22;1.48;;;21.50;99.90;;;;;;5034972;28;20337;-78
2022/06/28 10:08:14;;;;;;;8.43;1.80;;;21.30;99.90;;;;;;5047757;28;20063;-78
2022/06/28 10:10:41;;;;;;;8.13;1.98;;;21.30;99.90;;;;;;5031329;28;20498;-78
2022/06/28 10:16:27;;;;;;;9.05;1.92;;;21.70;99.90;;;;;;5037603;28;20209;-78
2022/06/28 10:18:55;;;;;;;7.00;1.80;;;21.70;99.90;;;;;;5030255;28;20574;-79
2022/06/28 10:21:44;;;;;;;8.30;1.85;;;21.50;99.90;;;;;;5030345;28;20037;-79
2022/06/28 10:24:10;;;;;;;8.48;2.15;;;21.40;99.90;;;;;;5047382;28;20033;-78
2022/06/28 10:26:36;;;;;;;8.25;1.80;;;21.40;99.90;;;;;;5047211;28;20044;-80
2022/06/28 10:29:01;;;;;;;8.60;1.85;;;21.50;99.90;;;;;;5047679;28;20043;-79
2022/06/28 10:31:29;;;;;;;8.52;2.05;;;21.70;99.90;;;;;;5047064;28;20499;-79
2022/06/28 10:34:03;;;;;;;10.23;2.20;;;21.90;99.90;;;;;;5047371;28;20049;-79
2022/06/28 10:36:39;;;;;;;8.88;2.13;;;22.40;99.90;;;;;;5047056;28;20040;-79
2022/06/28 10:39:11;;;;;;;8.90;1.73;;;22.30;99.90;;;;;;5030601;28;20063;-79
2022/06/28 10:41:43;;;;;;;7.35;1.85;;;22.60;99.90;;;;;;5030329;28;20033;-80
2022/06/28 10:44:23;;;;;;;10.68;1.92;;;22.50;99.90;;;;;;5047099;28;20033;-78
2022/06/28 10:47:12;;;;;;;7.88;1.85;;;22.60;99.90;;;;;;5030493;28;20036;-79
2022/06/28 10:49:44;;;;;;;7.75;1.92;;;22.60;99.90;;;;;;5038426;28;20532;-78
2022/06/28 10:52:19;;;;;;;7.15;1.63;;;22.90;99.90;;;;;;5051670;28;20575;-79
2022/06/28 10:54:51;;;;;;;7.97;1.88;;;23.00;99.90;;;;;;5058207;28;20123;-79
2022/06/28 10:57:20;;;;;;;9.63;2.20;;;23.40;99.90;;;;;;5066442;28;20051;-81
2022/06/28 10:59:49;;;;;;;11.00;2.40;;;23.20;99.90;;;;;;5050494;28;20120;-79
2022/06/28 11:02:15;;;;;;;7.82;2.00;;;23.30;99.90;;;;;;5049900;28;20382;-79
2022/06/28 11:04:41;;;;;;;8.35;1.83;;;23.40;99.90;;;;;;5067061;28;20032;-79
2022/06/28 11:07:21;;;;;;;7.53;1.75;;;23.50;99.90;;;;;;5050135;28;20059;-79
2022/06/28 11:09:55;;;;;;;7.45;1.85;;;23.50;99.90;;;;;;5050741;28;20055;-79
2022/06/28 11:12:42;;;;;;;7.55;1.88;;;23.60;99.90;;;;;;5070764;28;20469;-78
2022/06/28 11:15:29;;;;;;;5.93;1.80;;;23.70;99.90;;;;;;5070787;28;20075;-79
2022/06/28 11:17:55;;;;;;;21.17;3.78;;;23.70;99.90;;;;;;5033759;28;20075;-79
2022/06/28 11:20:27;;;;;;;28.05;5.05;;;23.60;99.90;;;;;;5021471;28;20109;-79
2022/06/28 11:22:54;;;;;;;19.85;3.60;;;23.70;99.90;;;;;;5050809;28;20189;-79
2022/06/28 11:27:19;;;;;;;8.77;2.35;;;23.70;99.90;;;;;;5034058;28;20032;-78
2022/06/28 11:28:15;;;;;;;8.55;1.85;;;23.80;99.90;;;;;;5050984;28;20053;-79
2022/06/28 11:30:44;;;;;;;7.35;1.65;;;23.90;99.90;;;;;;5036119;28;20051;-79
2022/06/28 11:33:12;;;;;;;6.03;1.65;;;24.00;99.90;;;;;;5037857;28;20048;-78
2022/06/28 11:35:40;;;;;;;6.85;1.83;;;24.20;99.90;;;;;;5037319;28;20047;-80
2022/06/28 11:38:09;;;;;;;7.03;1.67;;;24.20;99.90;;;;;;5054000;28;20045;-78
2022/06/28 11:40:54;;;;;;;5.70;1.70;;;24.20;99.90;;;;;;5070042;28;20048;-79
2022/06/28 11:43:27;;;;;;;7.45;2.05;;;24.40;99.90;;;;;;5038216;28;20040;-79
2022/06/28 11:45:54;;;;;;;6.50;1.73;;;24.50;99.90;;;;;;5070157;28;20044;-78
2022/06/28 11:48:27;;;;;;;7.68;1.73;;;24.60;99.90;;;;;;5039817;28;20402;-79
2022/06/28 11:50:54;;;;;;;8.68;1.98;;;24.40;99.90;;;;;;5069925;28;20124;-78
2022/06/28 11:53:21;;;;;;;8.15;2.15;;;24.30;99.90;;;;;;5053335;28;20052;-79
2022/06/28 11:55:58;;;;;;;7.43;1.80;;;24.30;99.90;;;;;;5033103;28;20142;-80
2022/06/28 11:58:29;;;;;;;7.03;1.80;;;24.40;99.90;;;;;;5033392;28;20045;-79
2022/06/28 12:01:12;;;;;;;7.88;1.80;;;24.50;99.90;;;;;;5049536;28;20114;-79
2022/06/28 12:03:43;;;;;;;7.90;1.90;;;24.50;99.90;;;;;;5033779;28;20124;-79
2022/06/28 12:06:24;;;;;;;7.33;1.77;;;24.60;99.90;;;;;;5043210;28;20044;-79
2022/06/28 12:08:52;;;;;;;6.93;1.67;;;24.70;99.90;;;;;;5063300;28;20044;-78
2022/06/28 12:11:33;;;;;;;7.80;2.00;;;24.70;99.90;;;;;;5032879;28;20072;-79
2022/06/28 12:14:13;;;;;;;5.32;1.60;;;24.70;99.90;;;;;;5058286;28;20048;-79
2022/06/28 12:16:59;;;;;;;6.47;1.63;;;24.90;99.90;;;;;;5036485;28;20083;-79
2022/06/28 12:19:33;;;;;;;8.13;1.63;;;25.00;99.90;;;;;;5069819;28;20047;-79
2022/06/28 12:22:13;;;;;;;6.05;1.42;;;25.10;99.90;;;;;;5051907;28;20055;-79
2022/06/28 12:24:40;;;;;;;8.88;1.70;;;25.20;99.90;;;;;;5069756;28;20041;-80
2022/06/28 12:27:06;;;;;;;6.18;1.50;;;25.40;99.90;;;;;;5052959;28;20116;-79
2022/06/28 12:29:32;;;;;;;8.98;1.55;;;25.40;99.90;;;;;;5053151;28;20109;-79
2022/06/28 12:31:58;;;;;;;8.52;1.90;;;25.50;99.90;;;;;;5052363;28;20051;-80
2022/06/28 12:34:23;;;;;;;7.85;1.63;;;25.50;99.90;;;;;;5036283;28;20032;-79
2022/06/28 12:36:49;;;;;;;6.50;1.80;;;25.70;99.90;;;;;;5019548;28;20040;-78
2022/06/28 12:39:15;;;;;;;7.38;1.67;;;25.70;99.90;;;;;;5052956;28;20518;-79
2022/06/28 12:41:41;;;;;;;5.43;1.55;;;25.30;99.90;;;;;;5035607;28;20041;-80
2022/06/28 12:44:07;;;;;;;8.52;1.60;;;25.20;99.90;;;;;;5069318;28;20086;-79
2022/06/28 12:46:33;;;;;;;6.18;1.30;;;25.10;99.90;;;;;;5019309;28;20270;-79
2022/06/28 12:48:59;;;;;;;7.43;1.70;;;25.00;99.90;;;;;;5042065;28;20053;-79
2022/06/28 12:51:25;;;;;;;7.38;1.60;;;25.00;99.90;;;;;;5032612;28;20049;-79
2022/06/28 12:53:51;;;;;;;7.75;1.70;;;25.10;99.90;;;;;;5003436;28;20056;-80
2022/06/28 12:56:17;;;;;;;7.05;1.77;;;24.70;99.90;;;;;;5049695;28;20236;-78